createdAt,value
2018-05-19T00:00:32.719Z,72.96
2018-05-19T00:01:38.231Z,72.96
2018-05-19T00:02:43.756Z,72.96
2018-05-19T00:03:49.267Z,72.82
2018-05-19T00:04:54.770Z,72.53
2018-05-19T00:06:00.287Z,72.34
2018-05-19T00:07:05.794Z,72.63
2018-05-19T00:08:11.305Z,72.63
2018-05-19T00:09:16.817Z,73.49
2018-05-19T00:10:22.345Z,73.01
2018-05-19T00:11:27.840Z,73.30
2018-05-19T00:12:33.370Z,73.68
2018-05-19T00:13:38.864Z,73.68
2018-05-19T00:14:44.394Z,73.68
2018-05-19T00:15:49.891Z,73.68
2018-05-19T00:16:55.403Z,73.68
2018-05-19T00:18:00.915Z,74.35
2018-05-19T00:19:06.443Z,74.16
2018-05-19T00:20:11.937Z,74.54
2018-05-19T00:21:17.458Z,74.25
2018-05-19T00:22:22.958Z,74.63
2018-05-19T00:23:28.478Z,74.16
2018-05-19T00:24:33.982Z,74.54
2018-05-19T00:25:39.499Z,74.54
2018-05-19T00:26:45.039Z,73.96
2018-05-19T00:27:50.523Z,74.63
2018-05-19T00:28:56.037Z,74.25
2018-05-19T00:30:01.550Z,73.87
2018-05-19T00:31:07.055Z,74.54
2018-05-19T00:32:12.563Z,74.54
2018-05-19T00:33:18.083Z,74.44
2018-05-19T00:34:23.590Z,74.63
2018-05-19T00:35:29.103Z,74.63
2018-05-19T00:36:34.615Z,74.69
2018-05-19T00:37:40.123Z,75.16
2018-05-19T00:38:45.637Z,74.88
2018-05-19T00:39:51.144Z,75.36
2018-05-19T00:40:56.657Z,75.45
2018-05-19T00:42:02.175Z,75.55
2018-05-19T00:43:07.676Z,75.55
2018-05-19T00:44:13.187Z,75.36
2018-05-19T00:45:18.714Z,75.36
2018-05-19T00:46:24.224Z,75.64
2018-05-19T00:47:29.730Z,75.45
2018-05-19T00:48:35.249Z,75.26
2018-05-19T00:49:40.751Z,75.36
2018-05-19T00:50:46.258Z,74.60
2018-05-19T00:51:51.790Z,74.88
2018-05-19T00:52:57.291Z,74.88
2018-05-19T00:54:02.795Z,74.79
2018-05-19T00:55:08.303Z,74.79
2018-05-19T00:56:13.836Z,74.69
2018-05-19T00:57:19.345Z,75.36
2018-05-19T00:58:24.844Z,75.84
2018-05-19T00:59:30.359Z,75.84
2018-05-19T01:00:35.867Z,75.64
2018-05-19T01:01:41.376Z,75.45
2018-05-19T01:02:46.885Z,75.26
2018-05-19T01:03:52.395Z,75.55
2018-05-19T01:04:57.917Z,75.26
2018-05-19T01:06:03.432Z,75.84
2018-05-19T01:07:08.930Z,75.64
2018-05-19T01:08:14.447Z,75.36
2018-05-19T01:09:19.955Z,75.64
2018-05-19T01:10:25.472Z,75.36
2018-05-19T01:11:30.979Z,75.93
2018-05-19T01:12:36.491Z,76.03
2018-05-19T01:13:42.004Z,75.64
2018-05-19T01:14:47.533Z,76.03
2018-05-19T01:15:53.020Z,75.84
2018-05-19T01:16:58.537Z,76.31
2018-05-19T01:18:04.050Z,76.50
2018-05-19T01:19:09.557Z,76.03
2018-05-19T01:20:15.070Z,76.50
2018-05-19T01:21:20.580Z,76.21
2018-05-19T01:22:26.091Z,76.50
2018-05-19T01:23:31.602Z,76.31
2018-05-19T01:24:37.116Z,76.40
2018-05-19T01:25:42.631Z,76.37
2018-05-19T01:26:48.144Z,76.56
2018-05-19T01:27:53.645Z,77.32
2018-05-19T01:28:59.155Z,77.03
2018-05-19T01:30:04.666Z,77.17
2018-05-19T01:31:10.177Z,77.13
2018-05-19T01:32:15.769Z,77.22
2018-05-19T01:33:21.204Z,77.22
2018-05-19T01:34:26.806Z,77.13
2018-05-19T01:35:32.225Z,77.22
2018-05-19T01:36:37.742Z,77.32
2018-05-19T01:37:43.294Z,77.32
2018-05-19T01:38:48.757Z,77.98
2018-05-19T01:39:54.267Z,77.70
2018-05-19T01:40:59.787Z,77.80
2018-05-19T01:42:05.294Z,77.61
2018-05-19T01:43:10.803Z,77.51
2018-05-19T01:44:16.320Z,77.51
2018-05-19T01:45:21.828Z,77.80
2018-05-19T01:46:27.338Z,78.08
2018-05-19T01:47:32.854Z,78.17
2018-05-19T01:48:38.365Z,78.46
2018-05-19T01:49:43.870Z,78.27
2018-05-19T01:50:49.389Z,78.27
2018-05-19T01:51:54.896Z,78.14
2018-05-19T01:53:00.399Z,78.90
2018-05-19T01:54:05.912Z,78.80
2018-05-19T01:55:11.433Z,78.71
2018-05-19T01:56:16.948Z,78.90
2018-05-19T01:57:22.445Z,79.09
2018-05-19T01:58:27.956Z,78.71
2018-05-19T01:59:33.469Z,79.38
2018-05-19T02:00:38.987Z,79.28
2018-05-19T02:01:44.487Z,78.99
2018-05-19T02:02:50.004Z,79.09
2018-05-19T02:03:55.511Z,79.19
2018-05-19T02:05:01.026Z,78.99
2018-05-19T02:06:06.536Z,79.09
2018-05-19T02:07:12.040Z,79.09
2018-05-19T02:08:17.605Z,79.19
2018-05-19T02:09:23.081Z,79.09
2018-05-19T02:10:28.582Z,78.71
2018-05-19T02:11:34.099Z,78.80
2018-05-19T02:12:39.595Z,78.90
2018-05-19T02:13:45.105Z,78.71
2018-05-19T02:14:50.618Z,78.71
2018-05-19T02:15:56.132Z,78.52
2018-05-19T02:17:01.645Z,78.52
2018-05-19T02:18:07.156Z,79.09
2018-05-19T02:19:12.668Z,78.71
2018-05-19T02:20:18.188Z,78.61
2018-05-19T02:21:23.686Z,78.71
2018-05-19T02:22:29.194Z,78.99
2018-05-19T02:23:34.703Z,79.19
2018-05-19T02:24:40.217Z,78.61
2018-05-19T02:25:45.726Z,78.33
2018-05-19T02:26:51.240Z,78.23
2018-05-19T02:27:56.746Z,78.14
2018-05-19T02:29:02.255Z,78.42
2018-05-19T02:30:07.774Z,78.04
2018-05-19T02:31:13.288Z,77.95
2018-05-19T02:32:18.791Z,78.04
2018-05-19T02:33:24.400Z,78.14
2018-05-19T02:34:29.812Z,78.71
2018-05-19T02:35:35.325Z,78.71
2018-05-19T02:36:40.844Z,79.19
2018-05-19T02:37:46.353Z,79.09
2018-05-19T02:38:51.859Z,79.09
2018-05-19T02:39:57.366Z,78.99
2018-05-19T02:41:02.876Z,79.47
2018-05-19T02:42:08.395Z,79.09
2018-05-19T02:43:13.897Z,79.75
2018-05-19T02:44:19.403Z,79.66
2018-05-19T02:45:24.921Z,79.47
2018-05-19T02:46:30.439Z,79.85
2018-05-19T02:47:35.943Z,79.85
2018-05-19T02:48:41.458Z,80.57
2018-05-19T02:49:46.965Z,80.47
2018-05-19T02:50:52.475Z,80.19
2018-05-19T02:51:57.985Z,80.38
2018-05-19T02:53:03.510Z,80.19
2018-05-19T02:54:09.001Z,80.80
2018-05-19T02:55:14.520Z,81.05
2018-05-19T02:56:20.026Z,80.66
2018-05-19T02:57:25.536Z,80.76
2018-05-19T02:58:31.060Z,80.66
2018-05-19T02:59:36.555Z,80.38
2018-05-19T03:00:42.067Z,80.38
2018-05-19T03:01:47.601Z,80.76
2018-05-19T03:02:53.092Z,80.29
2018-05-19T03:03:58.599Z,81.24
2018-05-19T03:05:04.109Z,80.76
2018-05-19T03:06:09.627Z,80.86
2018-05-19T03:07:15.126Z,80.66
2018-05-19T03:08:20.641Z,80.76
2018-05-19T03:09:26.153Z,80.47
2018-05-19T03:10:31.673Z,80.66
2018-05-19T03:11:37.172Z,81.05
2018-05-19T03:12:42.678Z,80.86
2018-05-19T03:13:48.189Z,80.76
2018-05-19T03:14:53.701Z,80.66
2018-05-19T03:15:59.218Z,80.95
2018-05-19T03:17:04.766Z,80.66
2018-05-19T03:18:10.286Z,80.76
2018-05-19T03:19:15.802Z,80.57
2018-05-19T03:20:21.251Z,81.33
2018-05-19T03:21:26.767Z,80.95
2018-05-19T03:22:32.273Z,80.95
2018-05-19T03:23:37.785Z,81.14
2018-05-19T03:24:43.295Z,81.43
2018-05-19T03:25:48.807Z,81.14
2018-05-19T03:26:54.320Z,81.14
2018-05-19T03:27:59.825Z,81.05
2018-05-19T03:29:05.338Z,81.33
2018-05-19T03:30:10.846Z,81.24
2018-05-19T03:31:16.363Z,81.05
2018-05-19T03:32:21.868Z,81.62
2018-05-19T03:33:27.379Z,81.14
2018-05-19T03:34:32.887Z,81.24
2018-05-19T03:35:38.479Z,81.33
2018-05-19T03:36:43.911Z,81.33
2018-05-19T03:37:49.418Z,81.33
2018-05-19T03:38:54.928Z,81.24
2018-05-19T03:40:00.441Z,81.14
2018-05-19T03:41:05.950Z,81.05
2018-05-19T03:42:11.465Z,80.95
2018-05-19T03:43:16.974Z,81.05
2018-05-19T03:44:22.480Z,81.05
2018-05-19T03:45:27.992Z,81.05
2018-05-19T03:46:33.504Z,81.05
2018-05-19T03:47:39.015Z,81.43
2018-05-19T03:48:44.529Z,80.86
2018-05-19T03:49:50.041Z,80.86
2018-05-19T03:50:55.553Z,81.24
2018-05-19T03:52:01.048Z,81.14
2018-05-19T03:53:06.560Z,81.24
2018-05-19T03:54:12.073Z,80.66
2018-05-19T03:55:17.586Z,80.66
2018-05-19T03:56:23.105Z,80.86
2018-05-19T03:57:28.619Z,80.76
2018-05-19T03:58:34.114Z,80.57
2018-05-19T03:59:39.622Z,80.86
2018-05-19T04:00:45.129Z,81.33
2018-05-19T04:01:50.643Z,80.66
2018-05-19T04:02:56.155Z,80.95
2018-05-19T04:04:01.671Z,81.14
2018-05-19T04:05:07.172Z,81.33
2018-05-19T04:06:12.687Z,81.33
2018-05-19T04:07:18.199Z,81.52
2018-05-19T04:08:23.706Z,81.52
2018-05-19T04:09:29.215Z,81.14
2018-05-19T04:10:34.727Z,81.52
2018-05-19T04:11:40.252Z,81.24
2018-05-19T04:12:45.744Z,81.24
2018-05-19T04:13:51.258Z,81.62
2018-05-19T04:14:56.766Z,81.71
2018-05-19T04:16:02.276Z,82.28
2018-05-19T04:17:07.801Z,82.09
2018-05-19T04:18:13.303Z,81.90
2018-05-19T04:19:18.812Z,82.09
2018-05-19T04:20:24.316Z,82.09
2018-05-19T04:21:29.844Z,82.28
2018-05-19T04:22:35.344Z,81.90
2018-05-19T04:23:40.862Z,82.19
2018-05-19T04:24:46.356Z,82.09
2018-05-19T04:25:51.866Z,82.09
2018-05-19T04:26:57.375Z,82.00
2018-05-19T04:28:02.886Z,81.71
2018-05-19T04:29:08.396Z,81.71
2018-05-19T04:30:13.905Z,81.52
2018-05-19T04:31:19.418Z,81.43
2018-05-19T04:32:24.925Z,81.52
2018-05-19T04:33:30.437Z,81.43
2018-05-19T04:34:35.945Z,81.62
2018-05-19T04:35:41.455Z,81.90
2018-05-19T04:36:46.974Z,81.90
2018-05-19T04:37:52.485Z,82.28
2018-05-19T04:38:57.995Z,82.23
2018-05-19T04:40:03.502Z,82.38
2018-05-19T04:41:09.016Z,82.14
2018-05-19T04:42:14.526Z,82.04
2018-05-19T04:43:20.036Z,82.23
2018-05-19T04:44:25.548Z,82.32
2018-05-19T04:45:31.055Z,82.04
2018-05-19T04:46:36.567Z,81.47
2018-05-19T04:47:42.182Z,81.47
2018-05-19T04:48:47.586Z,81.47
2018-05-19T04:49:53.143Z,82.14
2018-05-19T04:50:58.606Z,81.28
2018-05-19T04:52:04.118Z,81.28
2018-05-19T04:53:09.626Z,81.56
2018-05-19T04:54:15.135Z,81.66
2018-05-19T04:55:20.648Z,81.95
2018-05-19T04:56:26.163Z,81.76
2018-05-19T04:57:31.667Z,81.56
2018-05-19T04:58:37.175Z,81.47
2018-05-19T04:59:42.685Z,81.28
2018-05-19T05:00:48.206Z,81.47
2018-05-19T05:01:53.718Z,81.95
2018-05-19T05:02:59.219Z,81.56
2018-05-19T05:04:04.776Z,81.76
2018-05-19T05:05:10.244Z,82.42
2018-05-19T05:06:15.762Z,82.42
2018-05-19T05:07:21.263Z,82.75
2018-05-19T05:08:26.773Z,82.27
2018-05-19T05:09:32.285Z,82.46
2018-05-19T05:10:37.812Z,82.75
2018-05-19T05:11:43.309Z,82.56
2018-05-19T05:12:48.813Z,82.18
2018-05-19T05:13:54.341Z,82.37
2018-05-19T05:14:59.837Z,82.27
2018-05-19T05:16:05.962Z,82.37
2018-05-19T05:17:10.863Z,81.98
2018-05-19T05:18:16.378Z,82.46
2018-05-19T05:19:21.884Z,82.56
2018-05-19T05:20:27.400Z,82.56
2018-05-19T05:21:32.917Z,82.56
2018-05-19T05:22:38.418Z,82.50
2018-05-19T05:23:43.936Z,82.56
2018-05-19T05:24:49.466Z,82.12
2018-05-19T05:25:54.946Z,82.41
2018-05-19T05:27:00.487Z,82.41
2018-05-19T05:28:05.976Z,82.18
2018-05-19T05:29:11.475Z,82.41
2018-05-19T05:30:17.037Z,82.31
2018-05-19T05:31:22.500Z,82.41
2018-05-19T05:32:28.044Z,81.46
2018-05-19T05:33:33.542Z,81.74
2018-05-19T05:34:39.037Z,81.84
2018-05-19T05:35:44.553Z,81.74
2018-05-19T05:36:50.060Z,81.55
2018-05-19T05:37:55.564Z,81.55
2018-05-19T05:39:01.077Z,81.36
2018-05-19T05:40:06.585Z,81.93
2018-05-19T05:41:12.101Z,81.74
2018-05-19T05:42:17.622Z,81.74
2018-05-19T05:43:23.130Z,81.36
2018-05-19T05:44:28.632Z,81.88
2018-05-19T05:45:34.148Z,81.78
2018-05-19T05:46:39.662Z,82.26
2018-05-19T05:47:45.177Z,81.97
2018-05-19T05:48:50.691Z,82.45
2018-05-19T05:49:56.200Z,81.49
2018-05-19T05:51:01.706Z,81.59
2018-05-19T05:52:07.222Z,81.40
2018-05-19T05:53:12.734Z,81.88
2018-05-19T05:54:18.238Z,81.88
2018-05-19T05:55:23.754Z,82.35
2018-05-19T05:56:29.265Z,81.82
2018-05-19T05:57:34.771Z,81.35
2018-05-19T05:58:40.286Z,80.96
2018-05-19T05:59:45.811Z,81.15
2018-05-19T06:00:51.308Z,80.11
2018-05-19T06:01:56.816Z,79.72
2018-05-19T06:03:02.341Z,79.63
2018-05-19T06:04:07.847Z,79.44
2018-05-19T06:05:13.360Z,79.44
2018-05-19T06:06:18.880Z,78.77
2018-05-19T06:07:24.381Z,77.91
2018-05-19T06:08:29.937Z,78.01
2018-05-19T06:09:35.397Z,78.20
2018-05-19T06:10:40.917Z,78.33
2018-05-19T06:11:46.427Z,78.52
2018-05-19T06:12:51.936Z,78.52
2018-05-19T06:13:57.448Z,78.05
2018-05-19T06:15:02.972Z,77.95
2018-05-19T06:16:08.482Z,78.14
2018-05-19T06:17:13.986Z,77.95
2018-05-19T06:18:19.504Z,77.95
2018-05-19T06:19:25.005Z,77.57
2018-05-19T06:20:30.518Z,77.95
2018-05-19T06:21:36.048Z,77.95
2018-05-19T06:22:41.545Z,77.57
2018-05-19T06:23:47.053Z,76.52
2018-05-19T06:24:52.664Z,76.62
2018-05-19T06:25:58.087Z,76.42
2018-05-19T06:27:03.595Z,76.23
2018-05-19T06:28:09.115Z,75.76
2018-05-19T06:29:14.618Z,76.04
2018-05-19T06:30:20.125Z,75.66
2018-05-19T06:31:25.648Z,75.89
2018-05-19T06:32:31.151Z,75.89
2018-05-19T06:33:36.666Z,75.70
2018-05-19T06:34:42.213Z,75.70
2018-05-19T06:35:47.685Z,75.70
2018-05-19T06:36:53.200Z,75.51
2018-05-19T06:37:58.712Z,75.51
2018-05-19T06:39:04.224Z,75.70
2018-05-19T06:40:09.737Z,75.13
2018-05-19T06:41:15.301Z,75.03
2018-05-19T06:42:20.766Z,75.51
2018-05-19T06:43:26.291Z,75.13
2018-05-19T06:44:31.800Z,74.74
2018-05-19T06:45:37.303Z,74.74
2018-05-19T06:46:42.827Z,74.74
2018-05-19T06:47:48.331Z,74.93
2018-05-19T06:48:53.840Z,74.74
2018-05-19T06:49:59.356Z,74.65
2018-05-19T06:51:04.867Z,74.49
2018-05-19T06:52:10.386Z,74.49
2018-05-19T06:53:15.892Z,74.88
2018-05-19T06:54:21.402Z,74.49
2018-05-19T06:55:26.913Z,74.69
2018-05-19T06:56:32.432Z,74.49
2018-05-19T06:57:37.943Z,74.02
2018-05-19T06:58:43.458Z,73.83
2018-05-19T06:59:48.961Z,73.07
2018-05-19T07:00:54.477Z,73.07
2018-05-19T07:01:59.987Z,72.01
2018-05-19T07:03:05.505Z,72.01
2018-05-19T07:04:11.022Z,72.30
2018-05-19T07:05:16.526Z,71.57
2018-05-19T07:06:22.040Z,71.76
2018-05-19T07:07:27.557Z,71.53
2018-05-19T07:08:33.124Z,71.57
2018-05-19T07:09:38.632Z,71.95
2018-05-19T07:10:44.094Z,72.11
2018-05-19T07:11:49.640Z,71.67
2018-05-19T07:12:55.120Z,71.47
2018-05-19T07:14:00.627Z,71.28
2018-05-19T07:15:06.200Z,71.09
2018-05-19T07:16:11.655Z,71.00
2018-05-19T07:17:17.172Z,70.14
2018-05-19T07:18:22.687Z,70.42
2018-05-19T07:19:28.190Z,70.33
2018-05-19T07:20:33.718Z,70.42
2018-05-19T07:21:39.236Z,70.14
2018-05-19T07:22:44.733Z,70.33
2018-05-19T07:23:50.248Z,69.85
2018-05-19T07:24:55.763Z,70.04
2018-05-19T07:26:01.273Z,70.14
2018-05-19T07:27:06.787Z,69.27
2018-05-19T07:28:12.301Z,69.47
2018-05-19T07:29:17.819Z,69.37
2018-05-19T07:30:23.325Z,69.50
2018-05-19T07:31:28.839Z,69.31
2018-05-19T07:32:34.353Z,70.07
2018-05-19T07:33:39.870Z,69.70
2018-05-19T07:34:45.377Z,69.31
2018-05-19T07:35:50.902Z,68.93
2018-05-19T07:36:56.418Z,69.31
2018-05-19T07:38:01.920Z,68.55
2018-05-19T07:39:07.428Z,68.93
2018-05-19T07:40:12.946Z,68.74
2018-05-19T07:41:18.456Z,68.26
2018-05-19T07:42:23.979Z,67.69
2018-05-19T07:43:29.480Z,68.07
2018-05-19T07:44:34.998Z,67.78
2018-05-19T07:45:40.516Z,67.97
2018-05-19T07:46:46.030Z,67.88
2018-05-19T07:47:51.537Z,68.74
2018-05-19T07:48:57.062Z,69.02
2018-05-19T07:50:02.564Z,69.02
2018-05-19T07:51:08.085Z,68.74
2018-05-19T07:52:13.596Z,68.84
2018-05-19T07:53:19.115Z,68.45
2018-05-19T07:54:24.617Z,68.07
2018-05-19T07:55:30.130Z,68.16
2018-05-19T07:56:35.648Z,68.93
2018-05-19T07:57:41.154Z,69.21
2018-05-19T07:58:46.671Z,69.70
2018-05-19T07:59:52.203Z,69.12
2018-05-19T08:00:57.698Z,69.44
2018-05-19T08:02:03.221Z,68.77
2018-05-19T08:03:08.727Z,69.02
2018-05-19T08:04:14.289Z,68.55
2018-05-19T08:05:19.760Z,68.77
2018-05-19T08:06:25.269Z,68.29
2018-05-19T08:07:30.813Z,68.29
2018-05-19T08:08:36.304Z,68.20
2018-05-19T08:09:41.807Z,67.72
2018-05-19T08:10:47.328Z,68.10
2018-05-19T08:11:52.839Z,68.01
2018-05-19T08:12:58.349Z,68.01
2018-05-19T08:14:03.875Z,68.49
2018-05-19T08:15:09.379Z,68.77
2018-05-19T08:16:14.896Z,68.68
2018-05-19T08:17:20.462Z,69.15
2018-05-19T08:18:25.944Z,68.68
2018-05-19T08:19:31.450Z,68.10
2018-05-19T08:20:36.940Z,67.63
2018-05-19T08:21:42.460Z,66.76
2018-05-19T08:22:47.971Z,66.76
2018-05-19T08:23:53.482Z,66.96
2018-05-19T08:24:59.015Z,66.80
2018-05-19T08:26:04.511Z,66.76
2018-05-19T08:27:10.027Z,66.80
2018-05-19T08:28:15.543Z,66.99
2018-05-19T08:29:21.053Z,66.99
2018-05-19T08:30:26.571Z,66.61
2018-05-19T08:31:32.078Z,66.70
2018-05-19T08:32:37.598Z,66.13
2018-05-19T08:33:43.110Z,65.55
2018-05-19T08:34:48.629Z,65.55
2018-05-19T08:35:54.134Z,65.55
2018-05-19T08:36:59.651Z,66.03
2018-05-19T08:38:05.161Z,66.61
2018-05-19T08:39:10.672Z,66.13
2018-05-19T08:40:16.188Z,65.26
2018-05-19T08:41:21.701Z,65.65
2018-05-19T08:42:27.256Z,64.88
2018-05-19T08:43:32.731Z,65.17
2018-05-19T08:44:38.390Z,64.79
2018-05-19T08:45:43.757Z,64.69
2018-05-19T08:46:49.274Z,65.26
2018-05-19T08:47:54.795Z,65.65
2018-05-19T08:49:00.303Z,65.55
2018-05-19T08:50:05.820Z,65.94
2018-05-19T08:51:11.329Z,65.65
2018-05-19T08:52:16.852Z,65.65
2018-05-19T08:53:22.356Z,64.40
2018-05-19T08:54:27.877Z,64.40
2018-05-19T08:55:33.380Z,64.22
2018-05-19T08:56:38.900Z,63.73
2018-05-19T08:57:44.414Z,64.02
2018-05-19T08:58:49.923Z,63.83
2018-05-19T08:59:55.440Z,63.93
2018-05-19T09:01:00.950Z,63.83
2018-05-19T09:02:06.466Z,63.19
2018-05-19T09:03:11.986Z,62.68
2018-05-19T09:04:17.496Z,62.97
2018-05-19T09:05:23.022Z,62.97
2018-05-19T09:06:28.529Z,62.97
2018-05-19T09:07:34.032Z,62.87
2018-05-19T09:08:39.546Z,63.39
2018-05-19T09:09:45.069Z,64.82
2018-05-19T09:10:50.593Z,65.49
2018-05-19T09:11:56.099Z,64.34
2018-05-19T09:13:01.616Z,63.67
2018-05-19T09:14:07.121Z,62.90
2018-05-19T09:15:12.641Z,62.55
2018-05-19T09:16:18.155Z,62.74
2018-05-19T09:17:23.677Z,62.36
2018-05-19T09:18:29.179Z,62.74
2018-05-19T09:19:34.691Z,62.65
2018-05-19T09:20:40.261Z,62.07
2018-05-19T09:21:45.728Z,62.17
2018-05-19T09:22:51.239Z,62.26
2018-05-19T09:23:56.751Z,62.07
2018-05-19T09:25:02.263Z,62.07
2018-05-19T09:26:07.783Z,62.26
2018-05-19T09:27:13.299Z,61.50
2018-05-19T09:28:18.805Z,61.50
2018-05-19T09:29:24.326Z,60.44
2018-05-19T09:30:29.837Z,60.83
2018-05-19T09:31:35.350Z,61.40
2018-05-19T09:32:40.864Z,61.11
2018-05-19T09:33:46.384Z,60.93
2018-05-19T09:34:51.894Z,60.73
2018-05-19T09:35:57.424Z,61.31
2018-05-19T09:37:02.927Z,61.79
2018-05-19T09:38:08.441Z,62.55
2018-05-19T09:39:13.953Z,62.17
2018-05-19T09:40:19.485Z,61.50
2018-05-19T09:41:24.993Z,61.02
2018-05-19T09:42:30.500Z,61.40
2018-05-19T09:43:36.018Z,61.50
2018-05-19T09:44:41.525Z,60.83
2018-05-19T09:45:47.060Z,60.16
2018-05-19T09:46:52.562Z,60.83
2018-05-19T09:47:58.077Z,61.02
2018-05-19T09:49:03.590Z,62.26
2018-05-19T09:50:09.100Z,62.59
2018-05-19T09:51:14.628Z,63.73
2018-05-19T09:52:20.136Z,64.50
2018-05-19T09:53:25.648Z,63.06
2018-05-19T09:54:31.160Z,62.59
2018-05-19T09:55:36.675Z,62.96
2018-05-19T09:56:42.199Z,62.30
2018-05-19T09:57:47.706Z,60.96
2018-05-19T09:58:53.217Z,60.67
2018-05-19T09:59:58.733Z,61.72
2018-05-19T10:01:04.246Z,60.22
2018-05-19T10:02:09.765Z,61.75
2018-05-19T10:03:15.288Z,60.12
2018-05-19T10:04:20.791Z,58.62
2018-05-19T10:05:26.310Z,58.52
2018-05-19T10:06:31.825Z,60.92
2018-05-19T10:07:37.335Z,58.81
2018-05-19T10:08:42.858Z,57.18
2018-05-19T10:09:48.371Z,55.74
2018-05-19T10:10:53.882Z,56.60
2018-05-19T10:11:59.408Z,57.01
2018-05-19T10:13:04.916Z,58.74
2018-05-19T10:14:10.434Z,59.12
2018-05-19T10:15:15.952Z,57.97
2018-05-19T10:16:21.469Z,57.78
2018-05-19T10:17:26.994Z,57.68
2018-05-19T10:18:32.594Z,57.30
2018-05-19T10:19:38.007Z,57.40
2018-05-19T10:20:43.524Z,57.21
2018-05-19T10:21:49.042Z,56.53
2018-05-19T10:22:54.708Z,55.86
2018-05-19T10:24:00.072Z,55.96
2018-05-19T10:25:05.587Z,56.05
2018-05-19T10:26:11.107Z,56.24
2018-05-19T10:27:16.615Z,55.96
2018-05-19T10:28:22.154Z,55.38
2018-05-19T10:29:27.647Z,55.29
2018-05-19T10:30:33.164Z,55.19
2018-05-19T10:31:38.698Z,55.29
2018-05-19T10:32:44.196Z,55.60
2018-05-19T10:33:49.713Z,54.55
2018-05-19T10:34:55.223Z,54.64
2018-05-19T10:36:00.748Z,55.12
2018-05-19T10:37:06.267Z,54.74
2018-05-19T10:38:11.784Z,54.64
2018-05-19T10:39:17.289Z,54.64
2018-05-19T10:40:22.812Z,54.93
2018-05-19T10:41:28.322Z,54.55
2018-05-19T10:42:33.847Z,54.35
2018-05-19T10:43:39.358Z,54.55
2018-05-19T10:44:44.871Z,54.64
2018-05-19T10:45:50.397Z,54.74
2018-05-19T10:46:55.906Z,54.74
2018-05-19T10:48:01.434Z,54.64
2018-05-19T10:49:06.944Z,54.55
2018-05-19T10:50:12.458Z,53.97
2018-05-19T10:51:17.966Z,53.49
2018-05-19T10:52:23.485Z,52.62
2018-05-19T10:53:28.996Z,54.64
2018-05-19T10:54:34.517Z,55.79
2018-05-19T10:55:40.026Z,56.37
2018-05-19T10:56:45.555Z,53.58
2018-05-19T10:57:51.066Z,53.49
2018-05-19T10:58:56.575Z,54.25
2018-05-19T11:00:02.092Z,53.49
2018-05-19T11:01:07.609Z,53.20
2018-05-19T11:02:13.128Z,54.57
2018-05-19T11:03:18.645Z,54.86
2018-05-19T11:04:24.157Z,54.69
2018-05-19T11:05:29.671Z,53.45
2018-05-19T11:06:35.193Z,53.25
2018-05-19T11:07:40.713Z,52.68
2018-05-19T11:08:46.234Z,54.69
2018-05-19T11:09:51.797Z,54.12
2018-05-19T11:10:57.253Z,53.57
2018-05-19T11:12:02.778Z,52.61
2018-05-19T11:13:08.288Z,51.45
2018-05-19T11:14:13.808Z,51.74
2018-05-19T11:15:19.320Z,52.22
2018-05-19T11:16:24.843Z,52.15
2018-05-19T11:17:30.355Z,51.45
2018-05-19T11:18:35.973Z,50.87
2018-05-19T11:19:41.397Z,50.81
2018-05-19T11:20:46.994Z,50.90
2018-05-19T11:21:52.421Z,49.91
2018-05-19T11:22:57.940Z,49.91
2018-05-19T11:24:03.484Z,51.38
2018-05-19T11:25:08.974Z,50.04
2018-05-19T11:26:14.492Z,49.94
2018-05-19T11:27:20.006Z,49.17
2018-05-19T11:28:25.526Z,49.36
2018-05-19T11:29:31.056Z,48.21
2018-05-19T11:30:36.554Z,48.49
2018-05-19T11:31:42.082Z,49.43
2018-05-19T11:32:47.585Z,49.91
2018-05-19T11:33:53.105Z,49.84
2018-05-19T11:34:58.625Z,50.10
2018-05-19T11:36:04.153Z,50.90
2018-05-19T11:37:09.655Z,49.74
2018-05-19T11:38:15.170Z,49.94
2018-05-19T11:39:20.694Z,49.74
2018-05-19T11:40:26.224Z,49.07
2018-05-19T11:41:31.766Z,49.65
2018-05-19T11:42:37.239Z,50.23
2018-05-19T11:43:42.757Z,51.48
2018-05-19T11:44:48.281Z,50.99
2018-05-19T11:45:53.799Z,50.51
2018-05-19T11:46:59.317Z,49.17
2018-05-19T11:48:04.835Z,51.48
2018-05-19T11:49:10.351Z,51.29
2018-05-19T11:50:15.864Z,51.96
2018-05-19T11:51:21.397Z,52.66
2018-05-19T11:52:26.892Z,49.77
2018-05-19T11:53:32.414Z,50.09
2018-05-19T11:54:37.934Z,50.09
2018-05-19T11:55:43.457Z,49.05
2018-05-19T11:56:48.967Z,49.15
2018-05-19T11:57:54.494Z,49.91
2018-05-19T11:59:00.006Z,47.89
2018-05-19T12:00:05.526Z,47.41
2018-05-19T12:01:11.042Z,47.82
2018-05-19T12:02:16.553Z,48.21
2018-05-19T12:03:22.078Z,47.72
2018-05-19T12:04:27.599Z,45.99
2018-05-19T12:05:33.107Z,46.69
2018-05-19T12:06:38.633Z,47.07
2018-05-19T12:07:44.155Z,47.45
2018-05-19T12:08:49.661Z,46.59
2018-05-19T12:09:55.195Z,46.01
2018-05-19T12:11:00.698Z,44.66
2018-05-19T12:12:06.404Z,45.53
2018-05-19T12:13:11.754Z,45.72
2018-05-19T12:14:17.254Z,46.40
2018-05-19T12:15:22.772Z,45.55
2018-05-19T12:16:28.292Z,45.55
2018-05-19T12:17:33.824Z,45.45
2018-05-19T12:18:39.333Z,45.26
2018-05-19T12:19:44.848Z,44.29
2018-05-19T12:20:50.368Z,44.10
2018-05-19T12:21:55.896Z,44.76
2018-05-19T12:23:01.512Z,44.08
2018-05-19T12:24:06.946Z,44.37
2018-05-19T12:25:12.458Z,43.89
2018-05-19T12:26:17.978Z,43.98
2018-05-19T12:27:23.471Z,43.02
2018-05-19T12:28:28.995Z,43.41
2018-05-19T12:29:34.522Z,42.93
2018-05-19T12:30:40.034Z,42.61
2018-05-19T12:31:45.554Z,43.87
2018-05-19T12:32:51.064Z,44.73
2018-05-19T12:33:56.603Z,44.54
2018-05-19T12:35:02.105Z,44.06
2018-05-19T12:36:07.664Z,44.15
2018-05-19T12:37:13.196Z,44.25
2018-05-19T12:38:18.658Z,44.25
2018-05-19T12:39:24.181Z,43.87
2018-05-19T12:40:29.707Z,42.61
2018-05-19T12:41:35.319Z,43.10
2018-05-19T12:42:40.736Z,43.96
2018-05-19T12:43:46.251Z,44.93
2018-05-19T12:44:51.787Z,45.21
2018-05-19T12:45:57.285Z,44.54
2018-05-19T12:47:02.818Z,44.64
2018-05-19T12:48:08.333Z,44.18
2018-05-19T12:49:13.847Z,43.19
2018-05-19T12:50:19.362Z,43.31
2018-05-19T12:51:24.886Z,44.95
2018-05-19T12:52:30.401Z,46.11
2018-05-19T12:53:35.925Z,46.49
2018-05-19T12:54:41.436Z,45.04
2018-05-19T12:55:46.952Z,44.18
2018-05-19T12:56:52.471Z,44.66
2018-05-19T12:57:58.007Z,44.01
2018-05-19T12:59:03.562Z,43.81
2018-05-19T13:00:09.026Z,43.81
2018-05-19T13:01:14.561Z,43.91
2018-05-19T13:02:20.062Z,43.14
2018-05-19T13:03:25.652Z,44.20
2018-05-19T13:04:31.098Z,43.04
2018-05-19T13:05:36.620Z,42.85
2018-05-19T13:06:42.168Z,43.04
2018-05-19T13:07:47.714Z,43.91
2018-05-19T13:08:53.192Z,44.78
2018-05-19T13:09:58.692Z,44.01
2018-05-19T13:11:04.216Z,41.98
2018-05-19T13:12:09.747Z,42.56
2018-05-19T13:13:15.250Z,43.33
2018-05-19T13:14:20.770Z,44.10
2018-05-19T13:15:26.298Z,42.44
2018-05-19T13:16:31.814Z,42.25
2018-05-19T13:17:37.341Z,43.21
2018-05-19T13:18:42.862Z,43.77
2018-05-19T13:19:48.367Z,43.10
2018-05-19T13:20:53.887Z,43.67
2018-05-19T13:21:59.409Z,44.06
2018-05-19T13:23:04.916Z,43.98
2018-05-19T13:24:10.452Z,43.96
2018-05-19T13:25:15.965Z,43.79
2018-05-19T13:26:21.485Z,43.79
2018-05-19T13:27:27.022Z,42.83
2018-05-19T13:28:32.510Z,42.63
2018-05-19T13:29:38.025Z,43.31
2018-05-19T13:30:43.541Z,43.12
2018-05-19T13:31:49.085Z,42.93
2018-05-19T13:32:54.600Z,42.80
2018-05-19T13:34:00.103Z,42.54
2018-05-19T13:35:05.618Z,42.54
2018-05-19T13:36:11.163Z,43.89
2018-05-19T13:37:16.675Z,43.89
2018-05-19T13:38:22.180Z,42.93
2018-05-19T13:39:27.722Z,43.89
2018-05-19T13:40:33.216Z,43.02
2018-05-19T13:41:38.732Z,42.23
2018-05-19T13:42:44.243Z,42.80
2018-05-19T13:43:49.764Z,42.32
2018-05-19T13:44:55.283Z,42.42
2018-05-19T13:46:00.807Z,42.61
2018-05-19T13:47:06.329Z,43.00
2018-05-19T13:48:11.841Z,42.03
2018-05-19T13:49:17.359Z,41.44
2018-05-19T13:50:22.879Z,41.44
2018-05-19T13:51:28.396Z,43.27
2018-05-19T13:52:33.918Z,43.17
2018-05-19T13:53:39.545Z,43.07
2018-05-19T13:54:44.984Z,43.85
2018-05-19T13:55:50.507Z,45.20
2018-05-19T13:56:55.986Z,45.27
2018-05-19T13:58:01.507Z,44.79
2018-05-19T13:59:07.023Z,44.49
2018-05-19T14:00:12.561Z,44.98
2018-05-19T14:01:18.056Z,45.73
2018-05-19T14:02:23.576Z,44.67
2018-05-19T14:03:29.099Z,44.57